createdAt,value
2018-02-09T00:01:29.423Z,172.27
2018-02-09T00:03:57.658Z,182.97
2018-02-09T00:06:25.880Z,170.33
2018-02-09T00:08:54.149Z,173.13
2018-02-09T00:11:22.368Z,172.07
2018-02-09T00:13:52.102Z,178.60
2018-02-09T00:16:20.386Z,189.80
2018-02-09T00:18:48.654Z,279.27
2018-02-09T00:21:16.892Z,259.37
2018-02-09T00:23:45.921Z,194.27
2018-02-09T00:26:14.157Z,179.93
2018-02-09T00:28:42.388Z,178.07
2018-02-09T00:31:10.668Z,216.43
2018-02-09T00:33:38.931Z,201.60
2018-02-09T00:36:07.173Z,266.53
2018-02-09T00:38:36.219Z,357.67
2018-02-09T00:41:04.482Z,437.33
2018-02-09T00:43:33.408Z,325.03
2018-02-09T00:46:01.688Z,247.33
2018-02-09T00:48:29.948Z,204.40
2018-02-09T00:50:58.205Z,216.00
2018-02-09T00:53:26.494Z,223.00
2018-02-09T00:55:54.779Z,205.90
2018-02-09T00:58:23.761Z,233.33
2018-02-09T01:00:52.037Z,326.67
2018-02-09T01:03:20.296Z,356.30
2018-02-09T01:05:48.538Z,346.27
2018-02-09T01:08:16.812Z,344.00
2018-02-09T01:10:45.040Z,268.70
2018-02-09T01:13:13.282Z,256.30
2018-02-09T01:15:41.545Z,233.07
2018-02-09T01:18:09.773Z,229.90
2018-02-09T01:20:38.020Z,231.90
2018-02-09T01:23:06.315Z,208.43
2018-02-09T01:25:34.548Z,210.53
2018-02-09T01:28:02.777Z,229.93
2018-02-09T01:30:31.051Z,215.67
2018-02-09T01:32:59.294Z,263.03
2018-02-09T01:35:27.528Z,257.63
2018-02-09T01:37:56.564Z,259.60
2018-02-09T01:40:24.829Z,220.13
2018-02-09T01:42:53.058Z,237.73
2018-02-09T01:45:22.114Z,213.00
2018-02-09T01:47:50.359Z,225.63
2018-02-09T01:50:18.596Z,223.93
2018-02-09T01:52:46.859Z,213.87
2018-02-09T01:55:15.100Z,219.93
2018-02-09T01:57:44.104Z,215.60
2018-02-09T02:00:12.375Z,223.80
2018-02-09T02:02:40.604Z,216.13
2018-02-09T02:05:09.603Z,258.73
2018-02-09T02:07:38.642Z,214.87
2018-02-09T02:10:06.885Z,208.10
2018-02-09T02:12:35.116Z,214.60
2018-02-09T02:15:03.392Z,216.40
2018-02-09T02:17:31.613Z,214.73
2018-02-09T02:20:00.549Z,198.33
2018-02-09T02:22:29.103Z,224.10
2018-02-09T02:24:57.334Z,209.97
2018-02-09T02:27:25.592Z,220.60
2018-02-09T02:29:53.870Z,231.43
2018-02-09T02:32:22.097Z,223.07
2018-02-09T02:34:50.330Z,225.30
2018-02-09T02:37:18.640Z,206.77
2018-02-09T02:39:46.889Z,205.37
2018-02-09T02:42:15.908Z,234.10
2018-02-09T02:44:44.190Z,297.40
2018-02-09T02:47:12.424Z,281.87
2018-02-09T02:49:40.672Z,222.23
2018-02-09T02:52:08.948Z,219.90
2018-02-09T02:54:37.186Z,232.97
2018-02-09T02:57:05.435Z,222.53
2018-02-09T02:59:34.486Z,217.23
2018-02-09T03:02:03.488Z,218.27
2018-02-09T03:04:31.716Z,218.10
2018-02-09T03:06:59.984Z,231.37
2018-02-09T03:09:28.983Z,233.13
2018-02-09T03:11:57.200Z,224.93
2018-02-09T03:14:25.460Z,224.83
2018-02-09T03:16:53.706Z,295.03
2018-02-09T03:19:21.934Z,233.93
2018-02-09T03:21:50.204Z,231.60
2018-02-09T03:24:18.447Z,215.93
2018-02-09T03:26:46.676Z,225.27
2018-02-09T03:29:14.948Z,226.13
2018-02-09T03:31:43.173Z,225.73
2018-02-09T03:34:11.404Z,221.17
2018-02-09T03:36:39.672Z,226.67
2018-02-09T03:39:07.916Z,226.77
2018-02-09T03:41:36.145Z,274.17
2018-02-09T03:44:05.184Z,261.23
2018-02-09T03:46:33.400Z,330.13
2018-02-09T03:49:01.628Z,267.70
2018-02-09T03:51:29.898Z,238.87
2018-02-09T03:53:58.117Z,250.30
2018-02-09T03:56:26.363Z,396.43
2018-02-09T03:58:54.645Z,652.60
2018-02-09T04:01:22.907Z,445.07
2018-02-09T04:03:51.144Z,344.47
2018-02-09T04:06:20.187Z,366.27
2018-02-09T04:08:48.419Z,235.87
2018-02-09T04:11:16.651Z,244.10
2018-02-09T04:13:44.933Z,319.30
2018-02-09T04:16:13.213Z,247.80
2018-02-09T04:18:41.435Z,230.10
2018-02-09T04:21:09.688Z,278.27
2018-02-09T04:23:38.670Z,452.37
2018-02-09T04:26:07.673Z,324.97
2018-02-09T04:28:36.706Z,270.33
2018-02-09T04:31:04.928Z,238.53
2018-02-09T04:33:33.938Z,244.40
2018-02-09T04:36:02.212Z,281.60
2018-02-09T04:38:31.209Z,351.97
2018-02-09T04:40:59.432Z,337.50
2018-02-09T04:43:27.701Z,330.33
2018-02-09T04:45:55.935Z,238.70
2018-02-09T04:48:24.180Z,220.03
2018-02-09T04:50:52.437Z,217.00
2018-02-09T04:53:21.469Z,229.50
2018-02-09T04:55:50.468Z,278.67
2018-02-09T04:58:19.506Z,231.27
2018-02-09T05:00:47.749Z,215.47
2018-02-09T05:03:15.988Z,230.47
2018-02-09T05:05:44.257Z,218.77
2018-02-09T05:08:12.504Z,264.43
2018-02-09T05:10:40.751Z,633.93
2018-02-09T05:13:09.042Z,312.57
2018-02-09T05:15:37.280Z,282.90
2018-02-09T05:18:06.287Z,262.50
2018-02-09T05:20:34.612Z,243.00
2018-02-09T05:23:02.841Z,221.30
2018-02-09T05:25:31.095Z,225.07
2018-02-09T05:28:00.131Z,221.20
2018-02-09T05:30:28.387Z,234.67
2018-02-09T05:32:56.614Z,219.37
2018-02-09T05:35:24.886Z,206.87
2018-02-09T05:37:53.111Z,233.27
2018-02-09T05:40:21.336Z,265.10
2018-02-09T05:42:49.591Z,234.60
2018-02-09T05:45:17.842Z,241.87
2018-02-09T05:47:46.077Z,216.43
2018-02-09T05:50:14.338Z,206.87
2018-02-09T05:52:42.570Z,235.53
2018-02-09T05:55:10.800Z,243.13
2018-02-09T05:57:39.065Z,225.57
2018-02-09T06:00:07.291Z,224.33
2018-02-09T06:02:35.537Z,248.43
2018-02-09T06:05:05.061Z,217.17
2018-02-09T06:07:33.298Z,215.33
2018-02-09T06:10:01.533Z,207.73
2018-02-09T06:12:30.087Z,214.80
2018-02-09T06:14:59.077Z,210.03
2018-02-09T06:17:28.137Z,250.83
2018-02-09T06:19:56.389Z,210.20
2018-02-09T06:22:24.621Z,219.97
2018-02-09T06:24:53.623Z,215.30
2018-02-09T06:27:22.649Z,204.17
2018-02-09T06:29:50.882Z,195.60
2018-02-09T06:32:19.871Z,203.20
2018-02-09T06:34:49.014Z,202.33
2018-02-09T06:37:17.249Z,216.33
2018-02-09T06:39:46.242Z,218.40
2018-02-09T06:42:15.280Z,214.63
2018-02-09T06:44:43.521Z,231.53
2018-02-09T06:47:11.747Z,194.03
2018-02-09T06:49:40.024Z,195.97
2018-02-09T06:52:08.262Z,210.93
2018-02-09T06:54:36.501Z,209.33
2018-02-09T06:57:05.554Z,210.63
2018-02-09T06:59:34.557Z,217.77
2018-02-09T07:02:02.789Z,203.47
2018-02-09T07:04:31.057Z,196.33
2018-02-09T07:06:59.272Z,202.33
2018-02-09T07:09:27.484Z,189.63
2018-02-09T07:11:56.524Z,210.87
2018-02-09T07:14:24.754Z,192.23
2018-02-09T07:16:53.745Z,206.50
2018-02-09T07:19:22.777Z,188.70
2018-02-09T07:21:51.009Z,188.13
2018-02-09T07:24:19.998Z,196.27
2018-02-09T07:26:49.844Z,200.03
2018-02-09T07:29:18.074Z,196.83
2018-02-09T07:31:46.685Z,194.83
2018-02-09T07:34:15.834Z,203.27
2018-02-09T07:36:44.066Z,194.87
2018-02-09T07:39:12.341Z,193.87
2018-02-09T07:41:41.451Z,189.23
2018-02-09T07:44:09.680Z,190.30
2018-02-09T07:46:37.903Z,204.17
2018-02-09T07:49:06.476Z,181.13
2018-02-09T07:51:34.713Z,187.70
2018-02-09T07:54:02.955Z,207.80
2018-02-09T07:56:31.232Z,216.93
2018-02-09T07:58:59.465Z,184.10
2018-02-09T08:01:28.457Z,183.03
2018-02-09T08:03:56.721Z,183.23
2018-02-09T08:06:25.718Z,183.77
2018-02-09T08:08:54.719Z,184.13
2018-02-09T08:11:22.982Z,195.83
2018-02-09T08:13:51.976Z,212.90
2018-02-09T08:16:20.981Z,180.80
2018-02-09T08:18:49.238Z,223.77
2018-02-09T08:21:18.238Z,192.60
2018-02-09T08:23:47.242Z,183.53
2018-02-09T08:26:15.532Z,217.00
2018-02-09T08:28:44.649Z,179.03
2018-02-09T08:31:13.731Z,189.20
2018-02-09T08:33:42.119Z,194.23
2018-02-09T08:36:10.395Z,188.13
2018-02-09T08:38:38.672Z,218.67
2018-02-09T08:41:07.724Z,201.87
2018-02-09T08:43:36.016Z,171.67
2018-02-09T08:46:04.329Z,179.73
2018-02-09T08:48:32.618Z,179.47
2018-02-09T08:51:00.860Z,208.80
2018-02-09T08:53:29.090Z,229.40
2018-02-09T08:55:58.145Z,188.63
2018-02-09T08:58:26.392Z,191.53
2018-02-09T09:00:54.626Z,188.27
2018-02-09T09:03:22.911Z,180.07
2018-02-09T09:05:51.939Z,187.77
2018-02-09T09:08:20.185Z,188.97
2018-02-09T09:10:49.236Z,305.87
2018-02-09T09:13:17.480Z,237.33
2018-02-09T09:15:45.733Z,230.83
2018-02-09T09:18:14.838Z,306.33
2018-02-09T09:20:43.113Z,203.20
2018-02-09T09:23:11.389Z,181.40
2018-02-09T09:25:39.678Z,193.13
2018-02-09T09:28:07.944Z,188.67
2018-02-09T09:30:36.230Z,274.40
2018-02-09T09:33:04.553Z,191.53
2018-02-09T09:35:32.797Z,180.23
2018-02-09T09:38:01.090Z,194.67
2018-02-09T09:40:29.385Z,256.57
2018-02-09T09:42:57.661Z,262.50
2018-02-09T09:45:25.920Z,219.50
2018-02-09T09:47:54.216Z,176.87
2018-02-09T09:50:22.590Z,182.57
2018-02-09T09:52:50.827Z,174.53
2018-02-09T09:55:19.149Z,272.33
2018-02-09T09:57:47.402Z,287.10
2018-02-09T10:00:15.627Z,288.47
2018-02-09T10:02:43.937Z,178.97
2018-02-09T10:05:12.304Z,258.30
2018-02-09T10:07:40.620Z,171.13
2018-02-09T10:10:09.772Z,248.50
2018-02-09T10:12:38.054Z,228.97
2018-02-09T10:15:06.339Z,175.27
2018-02-09T10:17:34.643Z,171.13
2018-02-09T10:20:02.905Z,160.73
2018-02-09T10:22:31.189Z,152.17
2018-02-09T10:24:59.560Z,132.83
2018-02-09T10:27:27.923Z,137.27
2018-02-09T10:29:56.177Z,115.93
2018-02-09T10:32:24.673Z,137.00
2018-02-09T10:34:52.997Z,111.53
2018-02-09T10:37:21.371Z,123.93
2018-02-09T10:39:49.760Z,133.90
2018-02-09T10:42:19.278Z,100.83
2018-02-09T10:44:47.510Z,124.30
2018-02-09T10:47:15.797Z,115.90
2018-02-09T10:49:44.126Z,120.20
2018-02-09T10:52:12.492Z,107.33
2018-02-09T10:54:40.858Z,121.67
2018-02-09T10:57:09.931Z,108.80
2018-02-09T10:59:39.037Z,111.37
2018-02-09T11:02:09.072Z,109.77
2018-02-09T11:04:37.355Z,94.47
2018-02-09T11:07:05.652Z,109.10
2018-02-09T11:09:34.455Z,110.40
2018-02-09T11:15:01.062Z,95.57
2018-02-09T11:17:30.076Z,108.90
2018-02-09T11:19:58.362Z,96.53
2018-02-09T11:22:26.685Z,93.00
2018-02-09T11:24:54.973Z,97.73
2018-02-09T11:27:24.029Z,93.83
2018-02-09T11:29:52.336Z,91.40
2018-02-09T11:32:20.636Z,84.67
2018-02-09T11:34:48.990Z,90.17
2018-02-09T11:37:17.332Z,86.40
2018-02-09T11:39:45.615Z,92.97
2018-02-09T11:42:13.862Z,81.47
2018-02-09T11:44:42.267Z,73.53
2018-02-09T11:47:10.546Z,86.13
2018-02-09T11:49:38.887Z,80.70
2018-02-09T11:52:07.208Z,78.80
2018-02-09T11:54:35.467Z,77.60
2018-02-09T11:57:03.774Z,79.33
2018-02-09T11:59:32.803Z,69.50
2018-02-09T12:02:01.107Z,89.00
2018-02-09T12:04:29.388Z,66.80
2018-02-09T12:06:57.752Z,235.27
2018-02-09T12:09:26.762Z,142.67
2018-02-09T12:11:55.010Z,71.83
2018-02-09T12:14:23.334Z,70.33
2018-02-09T12:16:51.597Z,65.67
2018-02-09T12:19:19.862Z,57.40
2018-02-09T12:21:48.216Z,64.60
2018-02-09T12:24:16.534Z,61.40
2018-02-09T12:26:44.868Z,74.13
2018-02-09T12:29:13.182Z,66.53
2018-02-09T12:31:41.436Z,63.30
2018-02-09T12:34:09.709Z,102.23
2018-02-09T12:36:38.096Z,64.20
2018-02-09T12:39:06.350Z,55.37
2018-02-09T12:41:35.602Z,79.90
2018-02-09T12:44:03.964Z,63.30
2018-02-09T12:46:32.255Z,60.13
2018-02-09T12:49:00.495Z,66.57
2018-02-09T12:51:29.621Z,80.30
2018-02-09T12:53:57.901Z,77.30
2018-02-09T12:56:26.282Z,56.47
2018-02-09T12:58:55.783Z,68.27
2018-02-09T13:01:24.672Z,106.03
2018-02-09T13:03:52.949Z,90.10
2018-02-09T13:06:22.046Z,88.53
2018-02-09T13:08:50.315Z,64.53
2018-02-09T13:11:18.571Z,81.80
2018-02-09T13:13:46.912Z,108.50
2018-02-09T13:16:15.139Z,73.07
2018-02-09T13:18:49.925Z,100.40
2018-02-09T13:21:18.193Z,122.17
2018-02-09T13:24:04.927Z,107.33
2018-02-09T13:26:33.175Z,79.53
2018-02-09T13:29:01.463Z,92.17
2018-02-09T13:31:29.747Z,65.00
2018-02-09T13:33:58.133Z,87.47
2018-02-09T13:36:44.496Z,90.93
2018-02-09T13:39:12.782Z,115.50
2018-02-09T13:41:41.013Z,65.07
2018-02-09T13:44:09.297Z,78.93
2018-02-09T13:46:38.412Z,69.33
2018-02-09T13:49:07.425Z,74.70
2018-02-09T13:51:35.718Z,71.97
2018-02-09T13:54:03.958Z,59.07
2018-02-09T13:56:33.075Z,79.43
2018-02-09T13:59:01.343Z,59.00
2018-02-09T14:01:29.628Z,63.03
2018-02-09T14:03:57.904Z,83.43
2018-02-09T14:06:26.186Z,70.77
2018-02-09T14:08:54.433Z,66.40
2018-02-09T14:11:22.826Z,68.70
2018-02-09T14:13:51.074Z,66.17
2018-02-09T14:16:20.119Z,70.90
2018-02-09T14:18:48.499Z,59.10
2018-02-09T14:21:16.781Z,68.60
2018-02-09T14:23:45.080Z,63.07
2018-02-09T14:26:14.235Z,64.43
2018-02-09T14:28:42.462Z,63.57
2018-02-09T14:31:10.753Z,55.03
2018-02-09T14:33:39.767Z,75.70
2018-02-09T14:36:08.016Z,70.63
2018-02-09T14:38:37.080Z,75.13
2018-02-09T14:41:05.405Z,58.90
2018-02-09T14:43:33.668Z,76.83
2018-02-09T14:46:02.719Z,60.90
2018-02-09T14:48:30.988Z,55.00
2018-02-09T14:50:59.321Z,67.97
2018-02-09T14:53:27.660Z,62.23
2018-02-09T14:55:55.912Z,52.33
2018-02-09T14:58:24.206Z,75.27
2018-02-09T15:00:52.444Z,58.30
2018-02-09T15:03:20.704Z,66.43
2018-02-09T15:05:49.042Z,69.83
2018-02-09T15:08:17.418Z,60.60
2018-02-09T15:10:45.651Z,68.77
2018-02-09T15:13:14.029Z,76.53
2018-02-09T15:15:42.362Z,70.67
2018-02-09T15:18:10.770Z,84.37
2018-02-09T15:20:39.163Z,65.97
2018-02-09T15:23:07.615Z,62.17
2018-02-09T15:25:36.762Z,215.07
2018-02-09T15:28:05.026Z,57.40
2018-02-09T15:30:33.348Z,59.33
2018-02-09T15:33:01.932Z,53.10
2018-02-09T15:35:31.210Z,63.33
2018-02-09T15:38:00.477Z,83.97
2018-02-09T15:40:28.776Z,136.80
2018-02-09T15:42:57.094Z,82.77
2018-02-09T15:45:25.421Z,55.23
2018-02-09T15:47:53.999Z,58.47
2018-02-09T15:50:22.479Z,61.40
2018-02-09T15:52:50.730Z,64.87
2018-02-09T15:55:19.088Z,60.73
2018-02-09T15:57:48.249Z,56.70
2018-02-09T16:00:16.793Z,64.00
2018-02-09T16:02:45.921Z,57.97
2018-02-09T16:05:14.324Z,67.27
2018-02-09T16:07:42.916Z,67.00
2018-02-09T16:10:12.163Z,58.97
2018-02-09T16:12:40.469Z,58.10
2018-02-09T16:15:08.771Z,58.73
2018-02-09T16:17:37.896Z,63.07
2018-02-09T16:20:06.217Z,64.43
2018-02-09T16:22:34.516Z,61.90
2018-02-09T16:25:02.814Z,55.20
2018-02-09T16:27:31.082Z,70.17
2018-02-09T16:29:59.397Z,63.90
2018-02-09T16:32:27.691Z,61.87
2018-02-09T16:34:56.316Z,69.43
2018-02-09T16:37:25.381Z,58.57
2018-02-09T16:39:53.668Z,58.00
2018-02-09T16:42:21.908Z,66.13
2018-02-09T16:44:50.130Z,63.07
2018-02-09T16:47:18.414Z,62.60
2018-02-09T16:49:47.536Z,63.60
2018-02-09T16:52:15.792Z,72.53
2018-02-09T16:54:44.077Z,74.83
2018-02-09T16:57:12.975Z,67.73
2018-02-09T16:59:41.199Z,69.07
2018-02-09T17:02:09.541Z,66.33
2018-02-09T17:04:37.782Z,71.53
2018-02-09T17:07:06.037Z,69.33
2018-02-09T17:09:34.402Z,76.50
2018-02-09T17:12:02.655Z,70.70
2018-02-09T17:14:30.919Z,74.43
2018-02-09T17:16:59.275Z,77.40
2018-02-09T17:19:27.740Z,87.60
2018-02-09T17:21:56.990Z,78.00
2018-02-09T17:24:25.306Z,88.40
2018-02-09T17:26:54.352Z,83.37
2018-02-09T17:29:22.627Z,101.33
2018-02-09T17:31:51.682Z,96.17
2018-02-09T17:34:20.696Z,79.07
2018-02-09T17:36:48.924Z,91.30
2018-02-09T17:39:17.279Z,88.30
2018-02-09T17:41:45.557Z,80.63
2018-02-09T17:44:13.798Z,81.30
2018-02-09T17:46:42.095Z,81.20
2018-02-09T17:49:10.334Z,79.97
2018-02-09T17:51:39.531Z,80.27
2018-02-09T17:54:07.828Z,92.47
2018-02-09T17:56:36.052Z,83.20
2018-02-09T17:59:04.786Z,85.40
2018-02-09T18:01:33.051Z,86.87
2018-02-09T18:04:01.285Z,101.17
2018-02-09T18:06:29.523Z,97.10
2018-02-09T18:08:57.822Z,114.03
2018-02-09T18:11:26.067Z,109.57
2018-02-09T18:13:54.296Z,101.80
2018-02-09T18:16:22.574Z,98.37
2018-02-09T18:18:50.812Z,103.77
2018-02-09T18:21:19.066Z,99.97
2018-02-09T18:23:47.368Z,114.00
2018-02-09T18:26:15.608Z,111.50
2018-02-09T18:28:43.863Z,130.80
2018-02-09T18:31:12.906Z,134.50
2018-02-09T18:33:41.153Z,136.93
2018-02-09T18:36:09.408Z,137.87
2018-02-09T18:38:38.553Z,120.33
2018-02-09T18:41:06.846Z,118.83
2018-02-09T18:43:35.072Z,120.93
2018-02-09T18:46:03.383Z,115.40
2018-02-09T18:48:31.627Z,134.10
2018-02-09T18:50:59.880Z,125.07
2018-02-09T18:53:29.432Z,117.27
2018-02-09T18:55:57.653Z,129.27
2018-02-09T18:58:25.895Z,131.20
2018-02-09T19:00:54.174Z,129.53
2018-02-09T19:03:22.739Z,121.93
2018-02-09T19:05:51.022Z,123.00
2018-02-09T19:08:19.290Z,125.40
2018-02-09T19:10:47.512Z,122.57
2018-02-09T19:13:15.744Z,140.10
2018-02-09T19:15:44.024Z,131.93
2018-02-09T19:18:12.272Z,138.00
2018-02-09T19:20:40.490Z,144.47
2018-02-09T19:23:08.748Z,140.40
2018-02-09T19:25:36.985Z,131.70
2018-02-09T19:28:05.976Z,135.97
2018-02-09T19:30:34.239Z,153.60
2018-02-09T19:33:03.225Z,140.57
2018-02-09T19:35:32.234Z,128.73
2018-02-09T19:38:00.504Z,166.77
2018-02-09T19:40:29.506Z,224.50
2018-02-09T19:42:57.736Z,249.07
2018-02-09T19:45:26.095Z,257.07
2018-02-09T19:47:54.346Z,149.97
2018-02-09T19:50:22.560Z,130.00
2018-02-09T19:52:51.244Z,156.53
2018-02-09T19:55:19.557Z,143.60
2018-02-09T19:57:48.557Z,141.87
2018-02-09T20:00:17.587Z,131.80
2018-02-09T20:02:45.824Z,143.47
2018-02-09T20:05:14.078Z,137.57
2018-02-09T20:07:42.396Z,141.13
2018-02-09T20:10:11.894Z,130.77
2018-02-09T20:12:40.891Z,148.83
2018-02-09T20:15:09.183Z,150.57
2018-02-09T20:17:37.445Z,145.53
2018-02-09T20:20:05.669Z,142.37
2018-02-09T20:22:34.823Z,157.50
2018-02-09T20:25:03.317Z,158.80
2018-02-09T20:27:31.913Z,152.63
2018-02-09T20:30:01.511Z,131.10
2018-02-09T20:32:30.533Z,134.40
2018-02-09T20:34:58.769Z,181.87
2018-02-09T20:37:27.078Z,163.00
2018-02-09T20:39:55.327Z,146.90
2018-02-09T20:42:23.568Z,175.93
2018-02-09T20:44:52.616Z,163.83
2018-02-09T20:47:20.862Z,293.40
2018-02-09T20:49:49.118Z,294.43
2018-02-09T20:52:17.432Z,220.40
2018-02-09T20:54:46.004Z,266.83
2018-02-09T20:57:14.237Z,199.07
2018-02-09T20:59:43.537Z,272.10
2018-02-09T21:02:12.554Z,265.20
2018-02-09T21:04:40.809Z,225.90
2018-02-09T21:07:09.851Z,270.07
2018-02-09T21:09:38.082Z,278.47
2018-02-09T21:12:07.114Z,222.67
2018-02-09T21:14:35.394Z,183.33
2018-02-09T21:17:03.636Z,220.47
2018-02-09T21:19:32.162Z,193.23
2018-02-09T21:22:00.430Z,200.33
2018-02-09T21:24:28.680Z,236.63
2018-02-09T21:26:56.921Z,202.40
2018-02-09T21:29:26.016Z,222.73
2018-02-09T21:31:54.225Z,230.30
2018-02-09T21:34:22.461Z,233.87
2018-02-09T21:36:51.510Z,220.90
2018-02-09T21:39:19.766Z,193.77
2018-02-09T21:41:47.988Z,257.90
2018-02-09T21:44:16.261Z,169.30
2018-02-09T21:46:44.480Z,188.90
2018-02-09T21:49:12.714Z,211.27
2018-02-09T21:51:41.800Z,208.93
2018-02-09T21:54:10.876Z,210.53
2018-02-09T21:56:39.932Z,182.90
2018-02-09T21:59:08.243Z,195.03
2018-02-09T22:01:36.465Z,189.97
2018-02-09T22:04:05.475Z,186.03
2018-02-09T22:06:34.586Z,210.53
2018-02-09T22:09:02.869Z,168.57
2018-02-09T22:11:31.115Z,177.00
2018-02-09T22:14:00.145Z,221.87
2018-02-09T22:16:28.395Z,178.30
2018-02-09T22:18:56.669Z,205.70
2018-02-09T22:21:24.936Z,198.60
2018-02-09T22:23:53.938Z,198.93
2018-02-09T22:26:22.174Z,161.90
2018-02-09T22:28:50.436Z,179.37
2018-02-09T22:31:18.682Z,179.60
2018-02-09T22:33:46.929Z,202.80
2018-02-09T22:36:15.952Z,193.50
2018-02-09T22:38:44.192Z,184.23
2018-02-09T22:41:13.185Z,192.73
2018-02-09T22:43:42.226Z,193.00
2018-02-09T22:46:10.496Z,178.07
2018-02-09T22:48:38.747Z,227.10
2018-02-09T22:51:07.013Z,219.23
2018-02-09T22:53:36.016Z,210.00
2018-02-09T22:56:04.249Z,192.60
2018-02-09T22:58:32.500Z,164.90
2018-02-09T23:01:00.937Z,155.00
2018-02-09T23:03:29.945Z,158.73
2018-02-09T23:05:58.220Z,164.10
2018-02-09T23:08:26.441Z,148.63
2018-02-09T23:10:54.682Z,160.40
2018-02-09T23:13:22.966Z,148.40
2018-02-09T23:15:51.217Z,163.43
2018-02-09T23:18:19.443Z,159.37
2018-02-09T23:20:47.713Z,156.27
2018-02-09T23:23:15.956Z,151.17
2018-02-09T23:25:44.184Z,160.13
2018-02-09T23:28:12.475Z,148.17
2018-02-09T23:30:41.494Z,160.67
2018-02-09T23:33:09.739Z,155.13
2018-02-09T23:35:38.787Z,164.23
2018-02-09T23:38:07.041Z,186.00
2018-02-09T23:40:35.291Z,166.93
2018-02-09T23:43:04.343Z,163.23
2018-02-09T23:45:32.575Z,156.50
2018-02-09T23:48:00.801Z,153.07
2018-02-09T23:50:29.067Z,157.60
2018-02-09T23:52:57.289Z,164.07
2018-02-09T23:55:26.279Z,156.93
2018-02-09T23:57:55.294Z,166.17
